sensor_id;sensor_type;location;lat;lon;timestamp;temperature;humidity
73586;DHT22;61865;50.232;18.614;2023-04-06T00:01:28;-7.00;99.90
73586;DHT22;61865;50.232;18.614;2023-04-06T00:03:50;-7.10;99.90
73586;DHT22;61865;50.232;18.614;2023-04-06T00:06:12;-7.30;99.90
73586;DHT22;61865;50.232;18.614;2023-04-06T00:08:34;-7.40;99.90
73586;DHT22;61865;50.232;18.614;2023-04-06T00:10:56;-7.40;99.90
73586;DHT22;61865;50.232;18.614;2023-04-06T00:13:18;-7.50;99.90
73586;DHT22;61865;50.232;18.614;2023-04-06T00:15:41;-7.50;99.90
73586;DHT22;61865;50.232;18.614;2023-04-06T00:18:03;-7.60;99.90
73586;DHT22;61865;50.232;18.614;2023-04-06T00:20:25;-7.60;99.90
73586;DHT22;61865;50.232;18.614;2023-04-06T00:22:47;-7.60;99.90
73586;DHT22;61865;50.232;18.614;2023-04-06T00:25:09;-7.70;99.90
73586;DHT22;61865;50.232;18.614;2023-04-06T00:27:31;-7.70;99.90
73586;DHT22;61865;50.232;18.614;2023-04-06T00:29:53;-7.80;99.90
73586;DHT22;61865;50.232;18.614;2023-04-06T00:32:16;-7.80;99.90
73586;DHT22;61865;50.232;18.614;2023-04-06T00:34:38;-7.80;99.90
73586;DHT22;61865;50.232;18.614;2023-04-06T00:37:00;-7.70;99.90
73586;DHT22;61865;50.232;18.614;2023-04-06T00:39:22;-7.60;99.90
73586;DHT22;61865;50.232;18.614;2023-04-06T00:41:47;-7.20;99.90
73586;DHT22;61865;50.232;18.614;2023-04-06T00:44:10;-6.90;99.90
73586;DHT22;61865;50.232;18.614;2023-04-06T00:46:32;-7.00;99.90
73586;DHT22;61865;50.232;18.614;2023-04-06T00:48:56;-7.10;99.90
73586;DHT22;61865;50.232;18.614;2023-04-06T00:51:18;-7.20;99.90
73586;DHT22;61865;50.232;18.614;2023-04-06T00:53:40;-7.30;99.90
73586;DHT22;61865;50.232;18.614;2023-04-06T00:56:02;-7.30;99.90
73586;DHT22;61865;50.232;18.614;2023-04-06T00:58:24;-7.30;99.90
73586;DHT22;61865;50.232;18.614;2023-04-06T01:00:46;-7.30;99.90
73586;DHT22;61865;50.232;18.614;2023-04-06T01:03:08;-7.30;99.90
73586;DHT22;61865;50.232;18.614;2023-04-06T01:05:33;-7.30;99.90
73586;DHT22;61865;50.232;18.614;2023-04-06T01:07:55;-7.20;99.90
73586;DHT22;61865;50.232;18.614;2023-04-06T01:10:23;-6.90;99.90
73586;DHT22;61865;50.232;18.614;2023-04-06T01:12:46;-6.50;99.90
73586;DHT22;61865;50.232;18.614;2023-04-06T01:15:09;-6.30;99.90
73586;DHT22;61865;50.232;18.614;2023-04-06T01:17:31;-5.90;99.90
73586;DHT22;61865;50.232;18.614;2023-04-06T01:19:53;-5.40;99.90
73586;DHT22;61865;50.232;18.614;2023-04-06T01:22:17;-5.00;99.90
73586;DHT22;61865;50.232;18.614;2023-04-06T01:24:39;-4.80;99.90
73586;DHT22;61865;50.232;18.614;2023-04-06T01:27:00;-4.60;99.90
73586;DHT22;61865;50.232;18.614;2023-04-06T01:29:22;-4.50;99.90
73586;DHT22;61865;50.232;18.614;2023-04-06T01:31:44;-4.50;99.90
73586;DHT22;61865;50.232;18.614;2023-04-06T01:34:06;-4.60;99.90
73586;DHT22;61865;50.232;18.614;2023-04-06T01:36:28;-4.80;99.90
73586;DHT22;61865;50.232;18.614;2023-04-06T01:38:51;-5.10;99.90
73586;DHT22;61865;50.232;18.614;2023-04-06T01:41:13;-5.30;99.90
73586;DHT22;61865;50.232;18.614;2023-04-06T01:43:35;-5.30;99.90
73586;DHT22;61865;50.232;18.614;2023-04-06T01:45:57;-5.30;99.90
73586;DHT22;61865;50.232;18.614;2023-04-06T01:48:19;-5.20;99.90
73586;DHT22;61865;50.232;18.614;2023-04-06T01:50:44;-5.10;99.90
73586;DHT22;61865;50.232;18.614;2023-04-06T01:53:06;-5.00;99.90
73586;DHT22;61865;50.232;18.614;2023-04-06T01:55:29;-4.90;99.90
73586;DHT22;61865;50.232;18.614;2023-04-06T01:57:51;-4.70;99.90
73586;DHT22;61865;50.232;18.614;2023-04-06T02:00:15;-4.60;99.90
73586;DHT22;61865;50.232;18.614;2023-04-06T02:02:36;-4.60;99.90
73586;DHT22;61865;50.232;18.614;2023-04-06T02:04:58;-4.50;99.90
73586;DHT22;61865;50.232;18.614;2023-04-06T02:07:20;-4.50;99.90
73586;DHT22;61865;50.232;18.614;2023-04-06T02:09:42;-4.40;99.90
73586;DHT22;61865;50.232;18.614;2023-04-06T02:12:06;-4.40;99.90
73586;DHT22;61865;50.232;18.614;2023-04-06T02:14:31;-4.60;99.90
73586;DHT22;61865;50.232;18.614;2023-04-06T02:16:53;-4.80;99.90
73586;DHT22;61865;50.232;18.614;2023-04-06T02:19:14;-4.80;99.90
73586;DHT22;61865;50.232;18.614;2023-04-06T02:21:36;-4.70;99.90
73586;DHT22;61865;50.232;18.614;2023-04-06T02:23:58;-4.70;99.90
73586;DHT22;61865;50.232;18.614;2023-04-06T02:26:20;-4.70;99.90
73586;DHT22;61865;50.232;18.614;2023-04-06T02:28:44;-5.00;99.90
73586;DHT22;61865;50.232;18.614;2023-04-06T02:31:06;-5.30;99.90
73586;DHT22;61865;50.232;18.614;2023-04-06T02:33:27;-5.40;99.90
73586;DHT22;61865;50.232;18.614;2023-04-06T02:35:49;-5.30;99.90
73586;DHT22;61865;50.232;18.614;2023-04-06T02:38:11;-5.20;99.90
73586;DHT22;61865;50.232;18.614;2023-04-06T02:40:33;-5.10;99.90
73586;DHT22;61865;50.232;18.614;2023-04-06T02:42:55;-4.90;99.90
73586;DHT22;61865;50.232;18.614;2023-04-06T02:45:18;-4.60;99.90
73586;DHT22;61865;50.232;18.614;2023-04-06T02:47:41;-4.50;99.90
73586;DHT22;61865;50.232;18.614;2023-04-06T02:50:04;-4.40;99.90
73586;DHT22;61865;50.232;18.614;2023-04-06T02:52:26;-4.30;99.90
73586;DHT22;61865;50.232;18.614;2023-04-06T02:54:48;-4.30;99.90
73586;DHT22;61865;50.232;18.614;2023-04-06T02:57:11;-4.20;99.90
73586;DHT22;61865;50.232;18.614;2023-04-06T02:59:33;-4.10;99.90
73586;DHT22;61865;50.232;18.614;2023-04-06T03:01:57;-4.00;99.90
73586;DHT22;61865;50.232;18.614;2023-04-06T03:04:19;-3.90;99.90
73586;DHT22;61865;50.232;18.614;2023-04-06T03:06:42;-3.80;99.90
73586;DHT22;61865;50.232;18.614;2023-04-06T03:09:05;-3.80;99.90
73586;DHT22;61865;50.232;18.614;2023-04-06T03:11:27;-3.70;99.90
73586;DHT22;61865;50.232;18.614;2023-04-06T03:13:49;-3.70;99.90
73586;DHT22;61865;50.232;18.614;2023-04-06T03:16:11;-3.70;99.90
73586;DHT22;61865;50.232;18.614;2023-04-06T03:18:34;-3.70;99.90
73586;DHT22;61865;50.232;18.614;2023-04-06T03:20:56;-3.60;99.90
73586;DHT22;61865;50.232;18.614;2023-04-06T03:23:18;-3.50;99.90
73586;DHT22;61865;50.232;18.614;2023-04-06T03:25:41;-3.50;99.90
73586;DHT22;61865;50.232;18.614;2023-04-06T03:28:03;-3.50;99.90
73586;DHT22;61865;50.232;18.614;2023-04-06T03:30:25;-3.60;99.90
73586;DHT22;61865;50.232;18.614;2023-04-06T03:32:47;-3.70;99.90
73586;DHT22;61865;50.232;18.614;2023-04-06T03:35:10;-3.70;99.90
73586;DHT22;61865;50.232;18.614;2023-04-06T03:37:32;-3.70;99.90
73586;DHT22;61865;50.232;18.614;2023-04-06T03:39:54;-3.90;99.90
73586;DHT22;61865;50.232;18.614;2023-04-06T03:42:16;-4.30;99.90
73586;DHT22;61865;50.232;18.614;2023-04-06T03:44:38;-4.50;99.90
73586;DHT22;61865;50.232;18.614;2023-04-06T03:46:59;-4.50;99.90
73586;DHT22;61865;50.232;18.614;2023-04-06T03:49:22;-4.70;99.90
73586;DHT22;61865;50.232;18.614;2023-04-06T03:51:46;-4.90;99.90
73586;DHT22;61865;50.232;18.614;2023-04-06T03:54:07;-5.10;99.90
73586;DHT22;61865;50.232;18.614;2023-04-06T03:56:29;-5.20;99.90
73586;DHT22;61865;50.232;18.614;2023-04-06T03:58:51;-5.10;99.90
73586;DHT22;61865;50.232;18.614;2023-04-06T04:01:13;-5.00;99.90
73586;DHT22;61865;50.232;18.614;2023-04-06T04:03:35;-4.80;99.90
73586;DHT22;61865;50.232;18.614;2023-04-06T04:05:57;-4.60;99.90
73586;DHT22;61865;50.232;18.614;2023-04-06T04:08:20;-4.50;99.90
73586;DHT22;61865;50.232;18.614;2023-04-06T04:10:42;-4.40;99.90
73586;DHT22;61865;50.232;18.614;2023-04-06T04:13:04;-4.50;99.90
73586;DHT22;61865;50.232;18.614;2023-04-06T04:15:26;-4.50;99.90
73586;DHT22;61865;50.232;18.614;2023-04-06T04:17:48;-4.60;99.90
73586;DHT22;61865;50.232;18.614;2023-04-06T04:20:11;-4.60;99.90
73586;DHT22;61865;50.232;18.614;2023-04-06T04:22:33;-4.70;99.90
73586;DHT22;61865;50.232;18.614;2023-04-06T04:24:58;-4.70;99.90
73586;DHT22;61865;50.232;18.614;2023-04-06T04:27:20;-4.80;99.90
73586;DHT22;61865;50.232;18.614;2023-04-06T04:29:42;-4.80;99.90
73586;DHT22;61865;50.232;18.614;2023-04-06T04:32:05;-5.00;99.90
73586;DHT22;61865;50.232;18.614;2023-04-06T04:34:27;-5.20;99.90
73586;DHT22;61865;50.232;18.614;2023-04-06T04:36:49;-5.30;99.90
73586;DHT22;61865;50.232;18.614;2023-04-06T04:39:11;-5.20;99.90
73586;DHT22;61865;50.232;18.614;2023-04-06T04:41:37;-5.40;99.90
73586;DHT22;61865;50.232;18.614;2023-04-06T04:43:59;-5.50;99.90
73586;DHT22;61865;50.232;18.614;2023-04-06T04:46:21;-5.60;99.90
73586;DHT22;61865;50.232;18.614;2023-04-06T04:48:43;-5.80;99.90
73586;DHT22;61865;50.232;18.614;2023-04-06T04:51:05;-5.80;99.90
73586;DHT22;61865;50.232;18.614;2023-04-06T04:53:27;-5.70;99.90
73586;DHT22;61865;50.232;18.614;2023-04-06T04:55:49;-5.40;99.90
73586;DHT22;61865;50.232;18.614;2023-04-06T04:58:12;-5.30;99.90
73586;DHT22;61865;50.232;18.614;2023-04-06T05:00:37;-5.40;99.90
73586;DHT22;61865;50.232;18.614;2023-04-06T05:02:59;-5.50;99.90
73586;DHT22;61865;50.232;18.614;2023-04-06T05:05:21;-5.60;99.90
73586;DHT22;61865;50.232;18.614;2023-04-06T05:07:42;-5.60;99.90
73586;DHT22;61865;50.232;18.614;2023-04-06T05:10:05;-5.60;99.90
73586;DHT22;61865;50.232;18.614;2023-04-06T05:12:27;-5.60;99.90
73586;DHT22;61865;50.232;18.614;2023-04-06T05:14:51;-5.50;99.90
73586;DHT22;61865;50.232;18.614;2023-04-06T05:17:13;-5.40;99.90
73586;DHT22;61865;50.232;18.614;2023-04-06T05:19:35;-5.10;99.90
73586;DHT22;61865;50.232;18.614;2023-04-06T05:21:59;-4.70;99.90
73586;DHT22;61865;50.232;18.614;2023-04-06T05:24:21;-4.40;99.90
73586;DHT22;61865;50.232;18.614;2023-04-06T05:26:42;-4.10;99.90
73586;DHT22;61865;50.232;18.614;2023-04-06T05:29:06;-3.80;99.90
73586;DHT22;61865;50.232;18.614;2023-04-06T05:31:30;-3.60;99.90
73586;DHT22;61865;50.232;18.614;2023-04-06T05:33:52;-3.40;99.90
73586;DHT22;61865;50.232;18.614;2023-04-06T05:36:14;-3.20;99.90
73586;DHT22;61865;50.232;18.614;2023-04-06T05:38:36;-3.00;99.90
73586;DHT22;61865;50.232;18.614;2023-04-06T05:40:57;-2.80;99.90
73586;DHT22;61865;50.232;18.614;2023-04-06T05:43:19;-2.60;99.90
73586;DHT22;61865;50.232;18.614;2023-04-06T05:45:44;-2.50;99.90
73586;DHT22;61865;50.232;18.614;2023-04-06T05:48:07;-2.30;99.90
73586;DHT22;61865;50.232;18.614;2023-04-06T05:50:29;-2.10;99.90
73586;DHT22;61865;50.232;18.614;2023-04-06T05:52:51;-1.90;99.90
73586;DHT22;61865;50.232;18.614;2023-04-06T05:55:13;-1.60;99.90
73586;DHT22;61865;50.232;18.614;2023-04-06T05:57:35;-1.40;99.90
73586;DHT22;61865;50.232;18.614;2023-04-06T05:59:57;-1.30;99.90
73586;DHT22;61865;50.232;18.614;2023-04-06T06:02:18;-1.00;99.90
73586;DHT22;61865;50.232;18.614;2023-04-06T06:04:42;-0.90;99.90
73586;DHT22;61865;50.232;18.614;2023-04-06T06:07:04;-0.80;99.90
73586;DHT22;61865;50.232;18.614;2023-04-06T06:09:26;-0.60;99.90
73586;DHT22;61865;50.232;18.614;2023-04-06T06:11:48;-0.50;99.90
73586;DHT22;61865;50.232;18.614;2023-04-06T06:14:10;-0.40;99.90
73586;DHT22;61865;50.232;18.614;2023-04-06T06:16:32;-0.20;99.90
73586;DHT22;61865;50.232;18.614;2023-04-06T06:18:54;-0.10;99.90
73586;DHT22;61865;50.232;18.614;2023-04-06T06:21:17;0.10;99.90
73586;DHT22;61865;50.232;18.614;2023-04-06T06:23:39;0.20;99.90
73586;DHT22;61865;50.232;18.614;2023-04-06T06:26:01;0.20;99.90
73586;DHT22;61865;50.232;18.614;2023-04-06T06:28:23;0.30;99.90
73586;DHT22;61865;50.232;18.614;2023-04-06T06:30:45;0.40;99.90
73586;DHT22;61865;50.232;18.614;2023-04-06T06:33:07;0.50;99.90
73586;DHT22;61865;50.232;18.614;2023-04-06T06:35:29;0.70;99.90
73586;DHT22;61865;50.232;18.614;2023-04-06T06:37:52;0.70;99.90
73586;DHT22;61865;50.232;18.614;2023-04-06T06:40:14;0.80;99.90
73586;DHT22;61865;50.232;18.614;2023-04-06T06:42:38;0.70;99.90
73586;DHT22;61865;50.232;18.614;2023-04-06T06:45:00;1.00;99.90
73586;DHT22;61865;50.232;18.614;2023-04-06T06:47:22;1.20;99.90
73586;DHT22;61865;50.232;18.614;2023-04-06T06:49:44;1.40;99.90
73586;DHT22;61865;50.232;18.614;2023-04-06T06:52:06;1.50;99.90
73586;DHT22;61865;50.232;18.614;2023-04-06T06:54:29;1.50;99.90
73586;DHT22;61865;50.232;18.614;2023-04-06T06:56:51;1.60;99.90
73586;DHT22;61865;50.232;18.614;2023-04-06T06:59:14;1.60;99.90
73586;DHT22;61865;50.232;18.614;2023-04-06T07:01:37;1.60;99.90
73586;DHT22;61865;50.232;18.614;2023-04-06T07:03:59;1.70;99.90
73586;DHT22;61865;50.232;18.614;2023-04-06T07:06:20;1.70;99.90
73586;DHT22;61865;50.232;18.614;2023-04-06T07:08:42;1.70;99.90
73586;DHT22;61865;50.232;18.614;2023-04-06T07:11:06;1.70;99.90
73586;DHT22;61865;50.232;18.614;2023-04-06T07:13:28;1.60;99.90
73586;DHT22;61865;50.232;18.614;2023-04-06T07:15:50;1.60;99.90
73586;DHT22;61865;50.232;18.614;2023-04-06T07:18:12;1.60;99.90
73586;DHT22;61865;50.232;18.614;2023-04-06T07:20:34;1.70;99.90
73586;DHT22;61865;50.232;18.614;2023-04-06T07:22:56;1.70;99.90
73586;DHT22;61865;50.232;18.614;2023-04-06T07:25:21;1.70;99.90
73586;DHT22;61865;50.232;18.614;2023-04-06T07:27:44;1.80;99.90
73586;DHT22;61865;50.232;18.614;2023-04-06T07:30:07;2.00;99.90
73586;DHT22;61865;50.232;18.614;2023-04-06T07:32:29;2.00;99.90
73586;DHT22;61865;50.232;18.614;2023-04-06T07:34:51;2.00;99.90
73586;DHT22;61865;50.232;18.614;2023-04-06T07:37:13;2.00;99.90
73586;DHT22;61865;50.232;18.614;2023-04-06T07:39:37;2.10;99.90
73586;DHT22;61865;50.232;18.614;2023-04-06T07:42:00;2.10;99.90
73586;DHT22;61865;50.232;18.614;2023-04-06T07:44:24;2.10;99.90
73586;DHT22;61865;50.232;18.614;2023-04-06T07:46:46;2.10;98.70
73586;DHT22;61865;50.232;18.614;2023-04-06T07:49:08;2.20;98.00
73586;DHT22;61865;50.232;18.614;2023-04-06T07:51:29;2.20;94.10
73586;DHT22;61865;50.232;18.614;2023-04-06T07:53:52;2.30;94.80
73586;DHT22;61865;50.232;18.614;2023-04-06T07:56:13;2.20;97.50
73586;DHT22;61865;50.232;18.614;2023-04-06T07:58:35;2.30;95.40
73586;DHT22;61865;50.232;18.614;2023-04-06T08:00:59;2.30;90.50
73586;DHT22;61865;50.232;18.614;2023-04-06T08:03:24;2.30;94.70
73586;DHT22;61865;50.232;18.614;2023-04-06T08:05:47;2.30;78.10
73586;DHT22;61865;50.232;18.614;2023-04-06T08:08:09;2.30;82.80
73586;DHT22;61865;50.232;18.614;2023-04-06T08:10:31;2.30;82.40
73586;DHT22;61865;50.232;18.614;2023-04-06T08:12:57;2.30;90.00
73586;DHT22;61865;50.232;18.614;2023-04-06T08:15:20;2.30;82.60
73586;DHT22;61865;50.232;18.614;2023-04-06T08:17:43;2.30;87.70
73586;DHT22;61865;50.232;18.614;2023-04-06T08:20:06;2.50;91.30
73586;DHT22;61865;50.232;18.614;2023-04-06T08:22:30;2.40;87.80
73586;DHT22;61865;50.232;18.614;2023-04-06T08:24:51;2.60;86.00
73586;DHT22;61865;50.232;18.614;2023-04-06T08:27:13;2.70;78.40
73586;DHT22;61865;50.232;18.614;2023-04-06T08:29:35;2.80;93.50
73586;DHT22;61865;50.232;18.614;2023-04-06T08:31:58;2.90;75.20
73586;DHT22;61865;50.232;18.614;2023-04-06T08:34:21;2.70;77.30
73586;DHT22;61865;50.232;18.614;2023-04-06T08:36:44;2.70;73.10
73586;DHT22;61865;50.232;18.614;2023-04-06T08:39:07;2.70;76.70
73586;DHT22;61865;50.232;18.614;2023-04-06T08:41:29;2.90;73.70
73586;DHT22;61865;50.232;18.614;2023-04-06T08:43:56;3.00;74.40
73586;DHT22;61865;50.232;18.614;2023-04-06T08:46:18;3.10;83.60
73586;DHT22;61865;50.232;18.614;2023-04-06T08:48:42;3.10;69.80
73586;DHT22;61865;50.232;18.614;2023-04-06T08:51:06;2.90;73.00
73586;DHT22;61865;50.232;18.614;2023-04-06T08:53:28;3.10;73.10
73586;DHT22;61865;50.232;18.614;2023-04-06T08:55:50;3.20;71.90
73586;DHT22;61865;50.232;18.614;2023-04-06T08:58:15;3.10;74.10
73586;DHT22;61865;50.232;18.614;2023-04-06T09:00:38;3.20;78.90
73586;DHT22;61865;50.232;18.614;2023-04-06T09:03:05;3.30;69.20
73586;DHT22;61865;50.232;18.614;2023-04-06T09:05:28;3.20;74.70
73586;DHT22;61865;50.232;18.614;2023-04-06T09:07:52;3.40;71.50
73586;DHT22;61865;50.232;18.614;2023-04-06T09:10:15;3.60;72.40
73586;DHT22;61865;50.232;18.614;2023-04-06T09:12:38;3.80;78.80
73586;DHT22;61865;50.232;18.614;2023-04-06T09:15:01;3.80;66.90
73586;DHT22;61865;50.232;18.614;2023-04-06T09:17:23;3.60;66.60
73586;DHT22;61865;50.232;18.614;2023-04-06T09:19:46;3.50;68.60
73586;DHT22;61865;50.232;18.614;2023-04-06T09:22:07;3.50;70.90
73586;DHT22;61865;50.232;18.614;2023-04-06T09:24:42;3.60;66.40
73586;DHT22;61865;50.232;18.614;2023-04-06T09:27:04;3.60;67.60
73586;DHT22;61865;50.232;18.614;2023-04-06T09:29:26;3.60;68.00
73586;DHT22;61865;50.232;18.614;2023-04-06T09:31:48;3.80;66.60
73586;DHT22;61865;50.232;18.614;2023-04-06T09:34:20;3.80;69.40
73586;DHT22;61865;50.232;18.614;2023-04-06T09:36:42;4.00;66.70
73586;DHT22;61865;50.232;18.614;2023-04-06T09:39:04;4.00;65.00
73586;DHT22;61865;50.232;18.614;2023-04-06T09:41:29;3.90;65.20
73586;DHT22;61865;50.232;18.614;2023-04-06T09:43:52;4.10;65.70
73586;DHT22;61865;50.232;18.614;2023-04-06T09:46:15;4.20;65.60
73586;DHT22;61865;50.232;18.614;2023-04-06T09:48:38;4.30;66.60
73586;DHT22;61865;50.232;18.614;2023-04-06T09:51:03;4.40;64.00
73586;DHT22;61865;50.232;18.614;2023-04-06T09:53:27;4.30;62.50
73586;DHT22;61865;50.232;18.614;2023-04-06T09:55:54;4.00;63.50
73586;DHT22;61865;50.232;18.614;2023-04-06T09:58:22;3.90;62.60
73586;DHT22;61865;50.232;18.614;2023-04-06T10:00:50;4.10;65.10
73586;DHT22;61865;50.232;18.614;2023-04-06T10:03:20;4.00;62.40
73586;DHT22;61865;50.232;18.614;2023-04-06T10:05:46;4.00;62.50
73586;DHT22;61865;50.232;18.614;2023-04-06T10:08:09;4.20;62.40
73586;DHT22;61865;50.232;18.614;2023-04-06T10:10:31;4.30;63.80
73586;DHT22;61865;50.232;18.614;2023-04-06T10:12:54;4.30;62.20
73586;DHT22;61865;50.232;18.614;2023-04-06T10:15:17;4.10;63.10
73586;DHT22;61865;50.232;18.614;2023-04-06T10:17:41;4.30;63.20
73586;DHT22;61865;50.232;18.614;2023-04-06T10:20:08;4.30;66.00
73586;DHT22;61865;50.232;18.614;2023-04-06T10:22:36;4.50;65.40
73586;DHT22;61865;50.232;18.614;2023-04-06T10:24:59;4.40;63.30
73586;DHT22;61865;50.232;18.614;2023-04-06T10:27:28;4.30;62.30
73586;DHT22;61865;50.232;18.614;2023-04-06T10:29:50;4.10;64.30
73586;DHT22;61865;50.232;18.614;2023-04-06T10:32:13;4.40;63.30
73586;DHT22;61865;50.232;18.614;2023-04-06T10:34:35;4.50;61.60
73586;DHT22;61865;50.232;18.614;2023-04-06T10:36:58;4.20;62.60
73586;DHT22;61865;50.232;18.614;2023-04-06T10:39:24;4.30;63.20
73586;DHT22;61865;50.232;18.614;2023-04-06T10:41:47;4.50;61.20
73586;DHT22;61865;50.232;18.614;2023-04-06T10:44:17;4.50;60.70
73586;DHT22;61865;50.232;18.614;2023-04-06T10:46:52;4.60;61.60
73586;DHT22;61865;50.232;18.614;2023-04-06T10:49:15;4.80;61.30
73586;DHT22;61865;50.232;18.614;2023-04-06T10:51:38;4.60;63.10
73586;DHT22;61865;50.232;18.614;2023-04-06T10:54:01;4.80;64.10
73586;DHT22;61865;50.232;18.614;2023-04-06T10:56:25;4.90;63.00
73586;DHT22;61865;50.232;18.614;2023-04-06T10:58:50;4.80;61.50
73586;DHT22;61865;50.232;18.614;2023-04-06T11:01:14;4.70;63.20
73586;DHT22;61865;50.232;18.614;2023-04-06T11:03:42;4.80;61.60
73586;DHT22;61865;50.232;18.614;2023-04-06T11:06:06;4.90;62.70
73586;DHT22;61865;50.232;18.614;2023-04-06T11:08:32;4.60;64.20
73586;DHT22;61865;50.232;18.614;2023-04-06T11:11:05;4.70;63.90
73586;DHT22;61865;50.232;18.614;2023-04-06T11:13:37;4.70;61.40
73586;DHT22;61865;50.232;18.614;2023-04-06T11:16:00;4.80;60.70
73586;DHT22;61865;50.232;18.614;2023-04-06T11:18:22;4.90;61.80
73586;DHT22;61865;50.232;18.614;2023-04-06T11:20:47;5.00;63.30
73586;DHT22;61865;50.232;18.614;2023-04-06T11:23:11;4.90;62.10
73586;DHT22;61865;50.232;18.614;2023-04-06T11:25:33;4.70;62.80
73586;DHT22;61865;50.232;18.614;2023-04-06T11:27:55;4.50;64.50
73586;DHT22;61865;50.232;18.614;2023-04-06T11:30:19;4.70;61.00
73586;DHT22;61865;50.232;18.614;2023-04-06T11:32:41;4.70;60.40
73586;DHT22;61865;50.232;18.614;2023-04-06T11:35:04;4.60;60.60
73586;DHT22;61865;50.232;18.614;2023-04-06T11:37:27;4.70;61.20
73586;DHT22;61865;50.232;18.614;2023-04-06T11:39:52;4.70;61.80
73586;DHT22;61865;50.232;18.614;2023-04-06T11:42:21;4.80;63.40
73586;DHT22;61865;50.232;18.614;2023-04-06T11:44:44;5.00;61.20
73586;DHT22;61865;50.232;18.614;2023-04-06T11:47:08;5.00;62.30
73586;DHT22;61865;50.232;18.614;2023-04-06T11:49:31;5.30;61.10
73586;DHT22;61865;50.232;18.614;2023-04-06T11:51:53;5.30;59.10
73586;DHT22;61865;50.232;18.614;2023-04-06T11:54:15;5.10;59.00
73586;DHT22;61865;50.232;18.614;2023-04-06T11:56:42;5.00;60.20
73586;DHT22;61865;50.232;18.614;2023-04-06T11:59:05;5.20;60.50
73586;DHT22;61865;50.232;18.614;2023-04-06T12:01:27;5.20;58.80
73586;DHT22;61865;50.232;18.614;2023-04-06T12:03:50;5.10;59.80
73586;DHT22;61865;50.232;18.614;2023-04-06T12:06:13;5.10;60.20
73586;DHT22;61865;50.232;18.614;2023-04-06T12:08:35;5.20;58.10
73586;DHT22;61865;50.232;18.614;2023-04-06T12:10:59;5.10;58.50
73586;DHT22;61865;50.232;18.614;2023-04-06T12:13:22;5.20;58.20
73586;DHT22;61865;50.232;18.614;2023-04-06T12:15:47;5.30;58.60
73586;DHT22;61865;50.232;18.614;2023-04-06T12:18:11;5.30;59.30
73586;DHT22;61865;50.232;18.614;2023-04-06T12:20:33;5.40;58.70
73586;DHT22;61865;50.232;18.614;2023-04-06T12:22:55;5.30;57.30
73586;DHT22;61865;50.232;18.614;2023-04-06T12:25:17;5.40;59.60
73586;DHT22;61865;50.232;18.614;2023-04-06T12:27:40;5.30;58.20
73586;DHT22;61865;50.232;18.614;2023-04-06T12:30:04;5.30;58.70
73586;DHT22;61865;50.232;18.614;2023-04-06T12:32:26;5.20;58.40
73586;DHT22;61865;50.232;18.614;2023-04-06T12:34:48;5.10;58.60
73586;DHT22;61865;50.232;18.614;2023-04-06T12:37:10;5.00;58.40
73586;DHT22;61865;50.232;18.614;2023-04-06T12:39:32;4.90;58.90
73586;DHT22;61865;50.232;18.614;2023-04-06T12:41:54;5.00;61.50
73586;DHT22;61865;50.232;18.614;2023-04-06T12:44:17;5.00;59.70
73586;DHT22;61865;50.232;18.614;2023-04-06T12:46:40;4.90;59.10
73586;DHT22;61865;50.232;18.614;2023-04-06T12:49:03;5.10;59.20
73586;DHT22;61865;50.232;18.614;2023-04-06T12:51:27;5.00;58.20
73586;DHT22;61865;50.232;18.614;2023-04-06T12:53:49;5.00;59.00
73586;DHT22;61865;50.232;18.614;2023-04-06T12:56:13;4.80;58.80
73586;DHT22;61865;50.232;18.614;2023-04-06T12:58:35;5.00;59.80
73586;DHT22;61865;50.232;18.614;2023-04-06T13:00:58;4.90;60.60
73586;DHT22;61865;50.232;18.614;2023-04-06T13:03:24;4.90;58.30
73586;DHT22;61865;50.232;18.614;2023-04-06T13:05:47;4.90;60.30
73586;DHT22;61865;50.232;18.614;2023-04-06T13:08:09;4.90;58.30
73586;DHT22;61865;50.232;18.614;2023-04-06T13:10:31;4.90;61.50
73586;DHT22;61865;50.232;18.614;2023-04-06T13:12:53;4.80;59.70
73586;DHT22;61865;50.232;18.614;2023-04-06T13:15:15;4.90;60.30
73586;DHT22;61865;50.232;18.614;2023-04-06T13:17:37;4.90;59.80
73586;DHT22;61865;50.232;18.614;2023-04-06T13:20:00;5.00;60.10
73586;DHT22;61865;50.232;18.614;2023-04-06T13:22:24;4.90;61.60
73586;DHT22;61865;50.232;18.614;2023-04-06T13:24:45;4.70;60.70
73586;DHT22;61865;50.232;18.614;2023-04-06T13:27:07;4.60;59.90
73586;DHT22;61865;50.232;18.614;2023-04-06T13:29:29;4.70;60.30
73586;DHT22;61865;50.232;18.614;2023-04-06T13:31:51;4.80;59.40
73586;DHT22;61865;50.232;18.614;2023-04-06T13:34:13;4.80;59.20
73586;DHT22;61865;50.232;18.614;2023-04-06T13:36:36;4.90;59.30
73586;DHT22;61865;50.232;18.614;2023-04-06T13:39:02;5.00;61.20
73586;DHT22;61865;50.232;18.614;2023-04-06T13:41:25;5.10;59.90
73586;DHT22;61865;50.232;18.614;2023-04-06T13:43:47;5.00;60.10
73586;DHT22;61865;50.232;18.614;2023-04-06T13:46:09;5.00;60.30
73586;DHT22;61865;50.232;18.614;2023-04-06T13:48:32;5.00;59.30
73586;DHT22;61865;50.232;18.614;2023-04-06T13:50:54;5.00;60.80
73586;DHT22;61865;50.232;18.614;2023-04-06T13:53:17;4.90;60.40
73586;DHT22;61865;50.232;18.614;2023-04-06T13:55:39;4.70;59.80
73586;DHT22;61865;50.232;18.614;2023-04-06T13:58:02;4.70;62.50
73586;DHT22;61865;50.232;18.614;2023-04-06T14:00:24;4.70;61.60
73586;DHT22;61865;50.232;18.614;2023-04-06T14:02:46;4.60;64.60
73586;DHT22;61865;50.232;18.614;2023-04-06T14:05:10;4.40;72.30
73586;DHT22;61865;50.232;18.614;2023-04-06T14:07:32;4.30;72.60
73586;DHT22;61865;50.232;18.614;2023-04-06T14:09:56;4.30;70.80
73586;DHT22;61865;50.232;18.614;2023-04-06T14:12:17;4.40;70.00
73586;DHT22;61865;50.232;18.614;2023-04-06T14:14:40;4.40;79.20
73586;DHT22;61865;50.232;18.614;2023-04-06T14:17:02;4.20;99.90
73586;DHT22;61865;50.232;18.614;2023-04-06T14:19:24;3.90;99.90
73586;DHT22;61865;50.232;18.614;2023-04-06T14:21:48;3.70;99.90
73586;DHT22;61865;50.232;18.614;2023-04-06T14:24:10;3.60;99.90
73586;DHT22;61865;50.232;18.614;2023-04-06T14:26:34;3.80;99.90
73586;DHT22;61865;50.232;18.614;2023-04-06T14:28:56;3.60;99.90
73586;DHT22;61865;50.232;18.614;2023-04-06T14:31:18;3.70;99.90
73586;DHT22;61865;50.232;18.614;2023-04-06T14:33:41;3.50;99.90
73586;DHT22;61865;50.232;18.614;2023-04-06T14:36:03;3.40;99.90
73586;DHT22;61865;50.232;18.614;2023-04-06T14:38:27;3.40;99.90
73586;DHT22;61865;50.232;18.614;2023-04-06T14:40:49;3.60;99.90
73586;DHT22;61865;50.232;18.614;2023-04-06T14:43:14;3.70;99.90
73586;DHT22;61865;50.232;18.614;2023-04-06T14:45:36;3.60;99.90
73586;DHT22;61865;50.232;18.614;2023-04-06T14:47:59;3.60;99.90
73586;DHT22;61865;50.232;18.614;2023-04-06T14:50:21;3.70;99.90
73586;DHT22;61865;50.232;18.614;2023-04-06T14:52:43;3.70;99.90
73586;DHT22;61865;50.232;18.614;2023-04-06T14:55:07;3.70;99.90
73586;DHT22;61865;50.232;18.614;2023-04-06T14:57:29;3.60;99.90